Flight Track Log - Related Links

Times and Time Zones

All times are in EDT time to prevent confusion due to time zone crossing. See the RPA3228 flight status page for this flight to view local times or setup timezone preferences in your user account.

Time Position Orientation Groundspeed Altitude Reporting Facility
EDT Latitude Longitude Course Direction KTS MPH feet Rate Location/Type
Sat 07:33:02 AM 36.1333 -86.6833 64° Northeast 162 186 1,400  Level Nashville TRACON
Sat 07:34:09 AM 36.1500 -86.7667 284° West 210 242 4,100 2,646 Climbing Nashville TRACON
Sat 07:35:00 AM 36.1612 -86.2944 76° East  Level FlightAware Approximate
Sat 07:35:09 AM 36.2167 -86.7833 349° North 296 341 7,000  Level Nashville TRACON
Sat 07:36:00 AM 36.1850 -86.1719 80° East  Level FlightAware Approximate
Sat 07:36:20 AM 36.2225 -86.6678 86° East 314 361 10,600  Level Memphis Center
Sat 07:37:00 AM 36.2069 -86.0495 64° Northeast  Level FlightAware Approximate
Sat 07:37:20 AM 36.2169 -86.5547 93° East 314 361 12,900  Level Memphis Center
Sat 07:38:00 AM 36.2521 -85.9365 64° Northeast  Level FlightAware Approximate
Sat 07:38:20 AM 36.2111 -86.4317 93° East 338 389 15,500  Level Memphis Center
Sat 07:39:20 AM 36.2072 -86.3083 92° East 351 404 18,000 2,250 Climbing Memphis Center
Sat 07:40:20 AM 36.2028 -86.1775 92° East 369 425 20,000 2,100 Climbing Memphis Center
Sat 07:41:20 AM 36.2128 -86.0456 85° East 375 432 22,200 2,000 Climbing Memphis Center
Sat 07:42:20 AM 36.2628 -85.9272 62° Northeast 380 437 24,000 1,750 Climbing Memphis Center
Sat 07:43:20 AM 36.3150 -85.8111 61° Northeast 386 444 25,700 1,846 Climbing Memphis Center
Sat 07:45:09 AM 36.4169 -85.5997 59° Northeast 401 461 29,200 1,976 Climbing Indianapolis Center
Sat 07:46:10 AM 36.4747 -85.4767 60° Northeast 407 468 31,300 1,918 Climbing Indianapolis Center
Sat 07:47:11 AM 36.5328 -85.3547 59° Northeast 408 470 33,100 1,770 Climbing Indianapolis Center
Sat 07:48:12 AM 36.5903 -85.2306 60° Northeast 411 473 34,900 934 Climbing Indianapolis Center
Sat 07:49:13 AM 36.6392 -85.1011 65° Northeast 413 475 35,000 49 Climbing Indianapolis Center
Sat 07:50:14 AM 36.6800 -84.9675 69° East 412 474 35,000  Level Indianapolis Center
Sat 07:51:15 AM 36.7206 -84.8322 69° East 414 476 35,000  Level Indianapolis Center
Sat 07:52:16 AM 36.7619 -84.6975 69° East 414 476 35,000  Level Indianapolis Center
Sat 07:53:17 AM 36.8031 -84.5617 69° East 418 481 35,000  Level Indianapolis Center
Sat 07:54:18 AM 36.8467 -84.4169 69° East 414 476 35,000  Level Indianapolis Center
Sat 07:55:19 AM 36.8883 -84.2808 69° East 417 480 35,000  Level Indianapolis Center
Sat 07:56:20 AM 36.9281 -84.1450 70° East 415 478 35,000  Level Indianapolis Center
Sat 07:57:21 AM 36.9692 -84.0094 69° East 415 478 35,000  Level Indianapolis Center
Sat 07:58:22 AM 37.0089 -83.8733 70° East 415 478 35,000  Level Indianapolis Center
Sat 07:59:23 AM 37.0497 -83.7350 70° East 421 484 35,000  Level Indianapolis Center
Sat 08:00:24 AM 37.0961 -83.5772 70° East 414 476 35,000  Level Indianapolis Center
Sat 08:01:25 AM 37.1356 -83.4406 70° East 413 475 35,000  Level Indianapolis Center
Sat 08:02:26 AM 37.1761 -83.3031 70° East 415 478 35,000  Level Indianapolis Center
Sat 08:03:27 AM 37.2161 -83.1642 70° East 417 480 35,000  Level Indianapolis Center
Sat 08:04:28 AM 37.2558 -83.0253 70° East 418 481 35,000  Level Indianapolis Center
Sat 08:05:29 AM 37.2956 -82.8869 70° East 418 481 35,000  Level Indianapolis Center
Sat 08:06:30 AM 37.3356 -82.7478 70° East 420 483 35,000  Level Indianapolis Center
Sat 08:07:31 AM 37.3753 -82.6086 70° East 419 482 35,000  Level Indianapolis Center
Sat 08:08:32 AM 37.4139 -82.4703 71° East 419 482 35,000  Level Indianapolis Center
Sat 08:09:33 AM 37.4533 -82.3314 70° East 420 483 35,000  Level Indianapolis Center
Sat 08:10:34 AM 37.4925 -82.1908 71° East 424 488 35,000  Level Indianapolis Center
Sat 08:11:35 AM 37.5308 -82.0506 71° East 423 487 35,000  Level Indianapolis Center
Sat 08:12:36 AM 37.5697 -81.9100 71° East 424 488 35,000  Level Indianapolis Center
Sat 08:13:38 AM 37.6086 -81.7700 71° East 423 487 35,000  Level Indianapolis Center
Sat 08:14:39 AM 37.6458 -81.6278 72° East 425 489 35,000  Level Indianapolis Center
Sat 08:15:40 AM 37.6836 -81.4903 71° East 428 493 35,000  Level Indianapolis Center
Sat 08:16:41 AM 37.7275 -81.3258 71° East 424 488 35,000  Level Indianapolis Center
Sat 08:17:07 AM 37.7406 -81.2697 74° East 417 480 35,000  Level Washington Center
Sat 08:18:09 AM 37.7778 -81.1411 70° East 417 480 35,000  Level Washington Center
Sat 08:19:07 AM 37.8258 -81.0053 66° East 417 480 35,000  Level Washington Center
Sat 08:20:07 AM 37.8717 -80.8664 67° East 422 486 35,000  Level Washington Center
Sat 08:21:07 AM 37.9214 -80.7278 66° East 427 491 35,000  Level Washington Center
Sat 08:22:08 AM 37.9758 -80.5761 65° Northeast 427 491 35,000  Level Washington Center
Sat 08:23:08 AM 38.0250 -80.4422 65° Northeast 427 491 35,000  Level Washington Center
Sat 08:24:08 AM 38.0725 -80.3028 67° East 427 491 35,000  Level Washington Center
Sat 08:25:09 AM 38.1236 -80.1689 64° Northeast 432 497 35,000  Level Washington Center
Sat 08:26:07 AM 38.1725 -80.0317 66° East 432 497 35,000  Level Washington Center
Sat 08:27:09 AM 38.2125 -79.9072 68° East 432 497 35,000  Level Washington Center
Sat 08:28:09 AM 38.2631 -79.7728 64° Northeast 432 497 35,000  Level Washington Center
Sat 08:29:08 AM 38.3094 -79.6378 66° East 427 491 35,000  Level Washington Center
Sat 08:30:08 AM 38.3578 -79.5028 65° Northeast 422 486 35,000 -1,109 Level Washington Center
Sat 08:31:07 AM 38.4061 -79.3542 67° East 411 473 32,800 -2,200 Descending Washington Center
Sat 08:32:08 AM 38.4419 -79.2103 72° East 416 479 30,600 -2,213 Descending Washington Center
Sat 08:33:09 AM 38.4694 -79.0550 77° East 421 484 28,300 -2,000 Descending Washington Center
Sat 08:34:08 AM 38.4944 -78.9050 78° East 435 501 26,600 -1,650 Descending Washington Center
Sat 08:35:09 AM 38.5128 -78.7706 80° East 435 501 25,000 -1,785 Descending Washington Center
Sat 08:36:09 AM 38.5375 -78.6228 78° East 429 494 23,000 -1,831 Descending Washington Center
Sat 08:37:07 AM 38.5597 -78.4803 79° East 418 481 21,400 -1,729 Descending Washington Center
Sat 08:38:07 AM 38.5817 -78.3431 78° East 410 472 19,600 -1,785 Descending Washington Center
Sat 08:39:08 AM 38.6097 -78.2114 75° East 393 452 17,800 -1,686 Descending Washington Center
Sat 08:40:08 AM 38.6497 -78.0878 67° East 381 438 16,200 -1,350 Descending Washington Center
Sat 08:41:08 AM 38.6833 -77.9800 68° East 348 400 15,100 -1,041 Descending Washington Center
Sat 08:42:09 AM 38.7208 -77.8772 65° Northeast 326 375 14,100 -992 Descending Washington Center
Sat 08:43:09 AM 38.8042 -77.8719 North 259 298 13,100 -661 Descending Washington Center
Sat 08:44:07 AM 38.8983 -77.8589 North 273 314 12,800 -555 Descending Washington Center
Sat 08:45:08 AM 38.9722 -77.8103 27° Northeast 297 342 12,000 -1,225 Descending Washington Center
Sat 08:47:18 AM 38.9500 -77.5833 97° East 286 329 8,900 -1,263 Descending Potomac TRACON
Sat 08:48:18 AM 38.9333 -77.5000 104° East 249 287 8,000 -474 Descending Potomac TRACON
Sat 08:49:12 AM 38.9000 -77.4333 123° Southeast 235 270 8,000 -368 Level Potomac TRACON
Sat 08:50:12 AM 38.8667 -77.3500 117° Southeast 233 268 7,300 -500 Descending Potomac TRACON
Sat 08:51:12 AM 38.8500 -77.2833 108° East 231 266 7,000 -150 Descending Potomac TRACON
Sat 08:52:12 AM 38.8667 -77.2000 76° East 214 246 7,000 -474 Level Potomac TRACON
Sat 08:53:06 AM 38.9000 -77.2000 360° North 221 254 6,100 -500 Descending Potomac TRACON
Sat 08:54:12 AM 38.9500 -77.2667 314° West 212 244 6,000 -50 Descending Potomac TRACON
Sat 08:55:06 AM 38.9833 -77.3167 311° West 211 243 6,000  Level Potomac TRACON
Sat 08:56:06 AM 39.0167 -77.3667 311° West 212 244 6,000  Level Potomac TRACON
Sat 08:57:06 AM 39.0667 -77.3667 360° North 231 266 6,000 -500 Level Potomac TRACON
Sat 08:58:06 AM 39.0833 -77.3000 72° East 214 246 5,000 -700 Descending Potomac TRACON
Sat 08:59:06 AM 39.0500 -77.2500 131° Southeast 182 209 4,600 -574 Descending Potomac TRACON
Sat 09:00:01 AM 39.0167 -77.2167 142° Southeast 173 199 3,900 -730 Descending Potomac TRACON
Sat 09:01:01 AM 38.9833 -77.1667 131° Southeast 168 193 3,200 -700 Descending Potomac TRACON

Login

Don't have an account? Register now (free) for customized features, flight alerts, and more!